Time;durP1;ratioP1;P1;durP2;ratioP2;P2;SDS_P1;SDS_P2;PMS_P1;PMS_P2;Temp;Humidity;BMP_temperature;BMP_pressure;BME280_temperature;BME280_humidity;BME280_pressure;Samples;Min_cycle;Max_cycle;Signal;HPM_P1;HPM_P2
2021/11/18 00:00:42;;;;;;;;;;;;;;;4.45;100.00;102549.31;5053947;28;19979;-44
2021/11/18 00:03:09;;;;;;;;;;;;;;;4.44;100.00;102552.81;5053873;28;19929;-46
2021/11/18 00:05:36;;;;;;;;;;;;;;;4.42;100.00;102557.19;5050133;28;20036;-45
2021/11/18 00:08:03;;;;;;;;;;;;;;;4.40;100.00;102549.41;5051639;28;19931;-48
2021/11/18 00:10:40;;;;;;;;;;;;;;;4.38;100.00;102543.31;5053760;28;20249;-48
2021/11/18 00:13:08;;;;;;;;;;;;;;;4.34;100.00;102543.38;5036065;28;19925;-47
2021/11/18 00:15:35;;;;;;;;;;;;;;;4.31;100.00;102551.22;5053633;28;19932;-45
2021/11/18 00:18:06;;;;;;;;;;;;;;;4.28;100.00;102559.06;5052363;28;19975;-44
2021/11/18 00:20:34;;;;;;;;;;;;;;;4.24;100.00;102558.28;5052411;28;19925;-45
2021/11/18 00:23:01;;;;;;;;;;;;;;;4.20;100.00;102561.78;5052332;28;19924;-45
2021/11/18 00:25:28;;;;;;;;;;;;;;;4.18;100.00;102572.19;5052161;28;19933;-42
2021/11/18 00:27:55;;;;;;;;;;;;;;;4.16;100.00;102573.97;5052432;28;20292;-44
2021/11/18 00:30:22;;;;;;;;;;;;;;;4.13;100.00;102584.44;5052109;28;19956;-45
2021/11/18 00:32:48;;;;;;;;;;;;;;;4.13;100.00;102586.16;5052346;28;20445;-44
2021/11/18 00:35:17;;;;;;;;;;;;;;;4.10;100.00;102579.22;5053807;28;20402;-43
2021/11/18 00:37:44;;;;;;;;;;;;;;;4.09;100.00;102585.34;5052740;28;19951;-45
2021/11/18 00:40:12;;;;;;;;;;;;;;;4.07;100.00;102589.69;5053324;28;20418;-46
2021/11/18 00:42:38;;;;;;;;;;;;;;;4.05;100.00;102578.44;5053264;28;19925;-49
2021/11/18 00:45:05;;;;;;;;;;;;;;;4.00;100.00;102590.63;5051278;28;19925;-47
2021/11/18 00:47:32;;;;;;;;;;;;;;;3.96;100.00;102583.72;5052640;28;19925;-49
2021/11/18 00:49:59;;;;;;;;;;;;;;;3.96;100.00;102579.38;5051934;28;19935;-47
2021/11/18 00:52:26;;;;;;;;;;;;;;;3.94;100.00;102581.16;5051954;28;19925;-46
2021/11/18 00:54:52;;;;;;;;;;;;;;;3.91;100.00;102575.09;5048830;28;19925;-45
2021/11/18 00:57:20;;;;;;;;;;;;;;;3.90;100.00;102561.22;5052061;28;20371;-45
2021/11/18 00:59:46;;;;;;;;;;;;;;;3.88;100.00;102566.41;5052896;28;19947;-45
2021/11/18 01:02:13;;;;;;;;;;;;;;;3.86;100.00;102562.13;5051875;28;19929;-47
2021/11/18 01:04:41;;;;;;;;;;;;;;;3.84;100.00;102559.53;5048831;28;19929;-45
2021/11/18 01:07:07;;;;;;;;;;;;;;;3.81;100.00;102558.69;5050101;28;19924;-45
2021/11/18 01:09:34;;;;;;;;;;;;;;;3.81;100.00;102564.75;5052601;28;19972;-48
2021/11/18 01:12:02;;;;;;;;;;;;;;;3.77;100.00;102552.66;5052930;28;19986;-44
2021/11/18 01:14:28;;;;;;;;;;;;;;;3.76;100.00;102558.72;5052774;28;19928;-44
2021/11/18 01:16:55;;;;;;;;;;;;;;;3.76;100.00;102569.13;5052655;28;19928;-45
2021/11/18 01:19:22;;;;;;;;;;;;;;;3.72;100.00;102567.44;5051279;28;19925;-44
2021/11/18 01:21:49;;;;;;;;;;;;;;;3.71;100.00;102573.53;5052627;28;19925;-45
2021/11/18 01:24:16;;;;;;;;;;;;;;;3.70;100.00;102582.22;5051324;28;19925;-46
2021/11/18 01:26:43;;;;;;;;;;;;;;;3.65;100.00;102571.84;5051227;28;19956;-44
2021/11/18 01:29:10;;;;;;;;;;;;;;;3.65;100.00;102577.03;5052486;28;19925;-44
2021/11/18 01:31:36;;;;;;;;;;;;;;;3.65;100.00;102584.00;5052321;28;19983;-47
2021/11/18 01:34:03;;;;;;;;;;;;;;;3.66;100.00;102585.72;5052716;28;20412;-46
2021/11/18 01:36:30;;;;;;;;;;;;;;;3.65;100.00;102590.03;5052489;28;19932;-45
2021/11/18 01:38:57;;;;;;;;;;;;;;;3.65;100.00;102602.22;5051261;28;19974;-52
2021/11/18 01:41:25;;;;;;;;;;;;;;;3.64;100.00;102598.75;5051258;28;19929;-50
2021/11/18 01:43:53;;;;;;;;;;;;;;;3.62;100.00;102612.66;5051891;28;19929;-48
2021/11/18 01:46:21;;;;;;;;;;;;;;;3.59;100.00;102610.94;5046752;28;19936;-48
2021/11/18 01:48:49;;;;;;;;;;;;;;;3.60;100.00;102612.66;5050652;28;19925;-52
2021/11/18 01:51:16;;;;;;;;;;;;;;;3.60;100.00;102627.41;5038813;28;19951;-49
2021/11/18 01:53:44;;;;;;;;;;;;;;;3.61;100.00;102619.56;5056367;28;20043;-50
2021/11/18 01:56:12;;;;;;;;;;;;;;;3.64;100.00;102618.69;5056692;28;20318;-52
2021/11/18 01:58:39;;;;;;;;;;;;;;;3.65;100.00;102615.22;5056393;28;20434;-48
2021/11/18 02:01:06;;;;;;;;;;;;;;;3.61;100.00;102619.56;5056156;28;19987;-47
2021/11/18 02:03:33;;;;;;;;;;;;;;;3.62;100.00;102617.84;5056526;28;19932;-48
2021/11/18 02:06:08;;;;;;;;;;;;;;;3.61;100.00;102613.50;5055267;28;20346;-47
2021/11/18 02:08:35;;;;;;;;;;;;;;;3.60;100.00;102617.88;5053167;28;19932;-50
2021/11/18 02:11:06;;;;;;;;;;;;;;;3.61;100.00;102608.31;5054419;28;20303;-49
2021/11/18 02:13:33;;;;;;;;;;;;;;;3.59;100.00;102618.72;5056266;28;20019;-46
2021/11/18 02:16:00;;;;;;;;;;;;;;;3.59;100.00;102623.09;5054781;28;19929;-47
2021/11/18 02:18:29;;;;;;;;;;;;;;;3.58;100.00;102626.56;5054898;28;19925;-48
2021/11/18 02:21:03;;;;;;;;;;;;;;;3.55;100.00;102622.22;5056002;28;19924;-53
2021/11/18 02:23:31;;;;;;;;;;;;;;;3.55;100.00;102604.88;5055442;28;19929;-49
2021/11/18 02:25:58;;;;;;;;;;;;;;;3.54;100.00;102607.50;5055627;28;20395;-49
2021/11/18 02:28:26;;;;;;;;;;;;;;;3.51;100.00;102610.97;5053239;28;19925;-49
2021/11/18 02:30:53;;;;;;;;;;;;;;;3.50;100.00;102611.00;5052260;28;19924;-50
2021/11/18 02:33:20;;;;;;;;;;;;;;;3.51;100.00;102600.56;5053125;28;19971;-47
2021/11/18 02:35:47;;;;;;;;;;;;;;;3.52;100.00;102610.09;5056149;28;19925;-51
2021/11/18 02:38:14;;;;;;;;;;;;;;;3.52;100.00;102620.53;5037134;28;19994;-47
2021/11/18 02:40:42;;;;;;;;;;;;;;;3.52;100.00;102623.13;5053285;28;20295;-51
2021/11/18 02:43:14;;;;;;;;;;;;;;;3.52;100.00;102604.06;5054622;28;19925;-47
2021/11/18 02:45:43;;;;;;;;;;;;;;;3.51;100.00;102597.97;5055809;28;19924;-46
2021/11/18 02:48:10;;;;;;;;;;;;;;;3.53;100.00;102601.44;5055472;28;19933;-47
2021/11/18 02:50:38;;;;;;;;;;;;;;;3.55;100.00;102620.47;5054262;28;19925;-47
2021/11/18 02:53:05;;;;;;;;;;;;;;;3.57;100.00;102622.22;5055448;28;19963;-47
2021/11/18 02:55:33;;;;;;;;;;;;;;;3.57;100.00;102607.47;5053854;28;19974;-47
2021/11/18 02:58:00;;;;;;;;;;;;;;;3.61;100.00;102603.09;5051983;28;19929;-47
2021/11/18 03:00:31;;;;;;;;;;;;;;;3.62;100.00;102604.84;5054289;28;19925;-49
2021/11/18 03:02:58;;;;;;;;;;;;;;;3.64;100.00;102603.97;5055219;28;20035;-49
2021/11/18 03:05:25;;;;;;;;;;;;;;;3.66;100.00;102599.59;5055122;28;19924;-47
2021/11/18 03:07:52;;;;;;;;;;;;;;;3.69;100.00;102594.34;5055088;28;19924;-49
2021/11/18 03:10:20;;;;;;;;;;;;;;;3.72;100.00;102601.28;5053738;28;20000;-50
2021/11/18 03:12:46;;;;;;;;;;;;;;;3.76;100.00;102600.38;5054820;28;19932;-48
2021/11/18 03:15:14;;;;;;;;;;;;;;;3.79;100.00;102600.38;5053555;28;19983;-47
2021/11/18 03:17:42;;;;;;;;;;;;;;;3.86;100.00;102609.84;5053211;28;19925;-48
2021/11/18 03:20:11;;;;;;;;;;;;;;;3.87;100.00;102614.19;5052587;28;19928;-52
2021/11/18 03:22:38;;;;;;;;;;;;;;;3.89;100.00;102620.22;5052877;28;19966;-48
2021/11/18 03:25:06;;;;;;;;;;;;;;;3.96;100.00;102620.19;5053412;28;19932;-50
2021/11/18 03:27:33;;;;;;;;;;;;;;;3.98;100.00;102616.69;5053161;28;19925;-47
2021/11/18 03:29:59;;;;;;;;;;;;;;;4.00;100.00;102617.53;5054403;28;20002;-51
2021/11/18 03:32:26;;;;;;;;;;;;;;;4.05;100.00;102617.50;5053545;28;20369;-50
2021/11/18 03:34:53;;;;;;;;;;;;;;;4.08;100.00;102620.06;5036986;28;19971;-52
2021/11/18 03:37:19;;;;;;;;;;;;;;;4.13;100.00;102620.00;5054661;28;19924;-48
2021/11/18 03:39:46;;;;;;;;;;;;;;;4.26;100.00;102628.56;5054327;28;19929;-49
2021/11/18 03:42:13;;;;;;;;;;;;;;;4.28;100.00;102626.81;5052628;28;19924;-47
2021/11/18 03:44:40;;;;;;;;;;;;;;;4.31;100.00;102627.66;5036557;28;21063;-48
2021/11/18 03:47:08;;;;;;;;;;;;;;;4.33;100.00;102635.44;5053186;28;19924;-49
2021/11/18 03:49:35;;;;;;;;;;;;;;;4.34;100.00;102637.19;5054120;28;19932;-46
2021/11/18 03:52:02;;;;;;;;;;;;;;;4.35;100.00;102633.66;5053691;28;19928;-46
2021/11/18 03:54:30;;;;;;;;;;;;;;;4.38;100.00;102634.50;5052668;28;19924;-47
2021/11/18 03:56:57;;;;;;;;;;;;;;;4.40;100.00;102642.31;5054211;28;19971;-48
2021/11/18 03:59:26;;;;;;;;;;;;;;;4.44;100.00;102644.00;5052269;28;19932;-50
2021/11/18 04:01:53;;;;;;;;;;;;;;;4.46;100.00;102638.75;5049154;28;20283;-51
2021/11/18 04:04:23;;;;;;;;;;;;;;;4.49;100.00;102636.16;5051630;28;19972;-47
2021/11/18 04:06:50;;;;;;;;;;;;;;;4.50;100.00;102636.13;5052803;28;20330;-48
2021/11/18 04:09:17;;;;;;;;;;;;;;;4.53;100.00;102638.69;5050583;28;19928;-50
2021/11/18 04:11:45;;;;;;;;;;;;;;;4.55;100.00;102639.56;5051268;28;20039;-48
2021/11/18 04:14:12;;;;;;;;;;;;;;;4.56;100.00;102632.59;5053521;28;19970;-52
2021/11/18 04:16:39;;;;;;;;;;;;;;;4.62;100.00;102631.66;5053842;28;19925;-49
2021/11/18 04:19:06;;;;;;;;;;;;;;;4.63;100.00;102628.16;5053811;28;20451;-49
2021/11/18 04:21:33;;;;;;;;;;;;;;;4.65;100.00;102622.06;5034447;28;19936;-47
2021/11/18 04:24:01;;;;;;;;;;;;;;;4.69;100.00;102618.53;5052078;28;19932;-52
2021/11/18 04:26:27;;;;;;;;;;;;;;;4.75;100.00;102625.41;5052355;28;20376;-47
2021/11/18 04:28:54;;;;;;;;;;;;;;;4.75;100.00;102628.03;5052534;28;19932;-49
2021/11/18 04:31:22;;;;;;;;;;;;;;;4.77;100.00;102620.19;5051193;28;19933;-50
2021/11/18 04:33:49;;;;;;;;;;;;;;;4.78;100.00;102627.97;5051634;28;19963;-50
2021/11/18 04:36:16;;;;;;;;;;;;;;;4.80;100.00;102628.84;5053103;28;20093;-49
2021/11/18 04:38:43;;;;;;;;;;;;;;;4.82;100.00;102621.84;5050117;28;19983;-48
2021/11/18 04:41:10;;;;;;;;;;;;;;;4.86;100.00;102615.69;5050912;28;19931;-47
2021/11/18 04:43:38;;;;;;;;;;;;;;;4.90;100.00;102613.94;5052479;28;19951;-50
2021/11/18 04:46:07;;;;;;;;;;;;;;;4.96;100.00;102615.59;5051955;28;19932;-48
2021/11/18 04:48:34;;;;;;;;;;;;;;;4.99;100.00;102615.53;5052225;28;19924;-52
2021/11/18 04:51:01;;;;;;;;;;;;;;;4.99;100.00;102618.16;5053100;28;19974;-51
2021/11/18 04:53:28;;;;;;;;;;;;;;;5.02;100.00;102616.38;5051355;28;19925;-49
2021/11/18 04:55:55;;;;;;;;;;;;;;;5.05;100.00;102623.28;5050178;28;19936;-50
2021/11/18 04:58:22;;;;;;;;;;;;;;;5.07;100.00;102614.56;5051631;28;20418;-45
2021/11/18 05:00:50;;;;;;;;;;;;;;;5.11;100.00;102614.53;5053015;28;19925;-47
2021/11/18 05:03:18;;;;;;;;;;;;;;;5.12;100.00;102611.03;5052967;28;19940;-51
2021/11/18 05:05:45;;;;;;;;;;;;;;;5.14;100.00;102614.47;5051811;28;19971;-46
2021/11/18 05:08:12;;;;;;;;;;;;;;;5.15;100.00;102613.59;5053065;28;20284;-49
2021/11/18 05:10:40;;;;;;;;;;;;;;;5.14;100.00;102617.97;5052192;28;19929;-47
2021/11/18 05:13:07;;;;;;;;;;;;;;;5.17;100.00;102627.50;5050958;28;19933;-51
2021/11/18 05:15:35;;;;;;;;;;;;;;;5.19;100.00;102617.88;5051953;28;20006;-50
2021/11/18 05:18:04;;;;;;;;;;;;;;;5.19;100.00;102618.72;5052560;28;19954;-47
2021/11/18 05:20:32;;;;;;;;;;;;;;;5.21;100.00;102610.91;5052350;28;19928;-47
2021/11/18 05:22:59;;;;;;;;;;;;;;;5.22;100.00;102615.22;5052377;28;19932;-49
2021/11/18 05:25:26;;;;;;;;;;;;;;;5.27;100.00;102609.97;5051880;28;19929;-47
2021/11/18 05:27:53;;;;;;;;;;;;;;;5.25;100.00;102608.22;5051131;28;19968;-49
2021/11/18 05:30:22;;;;;;;;;;;;;;;5.26;100.00;102601.25;5048773;28;19937;-46
2021/11/18 05:32:48;;;;;;;;;;;;;;;5.26;100.00;102601.25;5052094;28;20371;-48
2021/11/18 05:35:15;;;;;;;;;;;;;;;5.30;100.00;102604.69;5052783;28;19979;-49
2021/11/18 05:37:41;;;;;;;;;;;;;;;5.32;100.00;102610.75;5052597;28;20426;-51
2021/11/18 05:40:09;;;;;;;;;;;;;;;5.35;100.00;102610.69;5049886;28;20632;-49
2021/11/18 05:42:36;;;;;;;;;;;;;;;5.36;100.00;102608.06;5049918;28;20441;-48
2021/11/18 05:45:04;;;;;;;;;;;;;;;5.43;100.00;102608.84;5052044;28;19929;-49
2021/11/18 05:47:31;;;;;;;;;;;;;;;5.41;100.00;102623.63;5051127;28;20403;-50
2021/11/18 05:49:59;;;;;;;;;;;;;;;5.40;100.00;102607.13;5051209;28;20423;-48
2021/11/18 05:52:26;;;;;;;;;;;;;;;5.41;100.00;102608.88;5052249;28;19928;-49
2021/11/18 05:54:54;;;;;;;;;;;;;;;5.42;100.00;102620.16;5050756;28;19928;-51
2021/11/18 05:57:22;;;;;;;;;;;;;;;5.45;100.00;102617.50;5050047;28;19929;-49
2021/11/18 05:59:50;;;;;;;;;;;;;;;5.45;100.00;102614.88;5052304;28;19931;-51
2021/11/18 06:02:16;;;;;;;;;;;;;;;5.47;100.00;102618.34;5052180;28;20316;-50
2021/11/18 06:04:43;;;;;;;;;;;;;;;5.48;100.00;102607.03;5052433;28;20291;-46
2021/11/18 06:07:10;;;;;;;;;;;;;;;5.50;100.00;102607.00;5052299;28;19940;-51
2021/11/18 06:09:36;;;;;;;;;;;;;;;5.52;100.00;102606.09;5052062;28;19994;-50
2021/11/18 06:12:04;;;;;;;;;;;;;;;5.52;100.00;102611.31;5052032;28;19925;-49
2021/11/18 06:14:30;;;;;;;;;;;;;;;5.57;100.00;102629.50;5052203;28;19925;-49
2021/11/18 06:16:57;;;;;;;;;;;;;;;5.54;100.00;102635.63;5052452;28;19929;-48
2021/11/18 06:19:24;;;;;;;;;;;;;;;5.54;100.00;102633.00;5052106;28;19925;-51
2021/11/18 06:21:54;;;;;;;;;;;;;;;5.57;100.00;102627.72;5050419;28;19925;-45
2021/11/18 06:24:22;;;;;;;;;;;;;;;5.57;100.00;102638.19;5048273;28;20296;-48
2021/11/18 06:26:50;;;;;;;;;;;;;;;5.58;100.00;102637.28;5051266;28;19932;-46
2021/11/18 06:29:20;;;;;;;;;;;;;;;5.59;100.00;102644.25;5049599;28;20031;-50
2021/11/18 06:31:47;;;;;;;;;;;;;;;5.60;100.00;102652.94;5047314;28;20379;-49
2021/11/18 06:34:15;;;;;;;;;;;;;;;5.60;100.00;102655.53;5050728;28;19925;-48
2021/11/18 06:36:43;;;;;;;;;;;;;;;5.61;100.00;102659.88;5034709;28;19936;-49
2021/11/18 06:39:10;;;;;;;;;;;;;;;5.62;100.00;102663.34;5053502;28;19924;-49
2021/11/18 06:41:38;;;;;;;;;;;;;;;5.61;100.00;102657.28;5055422;28;20438;-49
2021/11/18 06:44:05;;;;;;;;;;;;;;;5.68;100.00;102648.44;5054886;28;19925;-47
2021/11/18 06:46:31;;;;;;;;;;;;;;;5.68;100.00;102643.22;5051588;28;20338;-48
2021/11/18 06:48:58;;;;;;;;;;;;;;;5.68;100.00;102647.59;5054404;28;19932;-49
2021/11/18 06:51:25;;;;;;;;;;;;;;;5.72;100.00;102641.44;5053966;28;19932;-51
2021/11/18 06:53:53;;;;;;;;;;;;;;;5.69;100.00;102650.19;5054064;28;19968;-50
2021/11/18 06:56:22;;;;;;;;;;;;;;;5.74;100.00;102642.28;5054315;28;20402;-51
2021/11/18 06:58:49;;;;;;;;;;;;;;;5.74;100.00;102639.69;5053039;28;20338;-50
2021/11/18 07:01:16;;;;;;;;;;;;;;;5.71;100.00;102647.53;5052412;28;20333;-49
2021/11/18 07:03:43;;;;;;;;;;;;;;;5.70;100.00;102653.66;5055422;28;20441;-48
2021/11/18 07:06:12;;;;;;;;;;;;;;;5.73;100.00;102666.69;5037651;28;20402;-48
2021/11/18 07:08:38;;;;;;;;;;;;;;;5.74;100.00;102668.41;5055040;28;20400;-51
2021/11/18 07:11:05;;;;;;;;;;;;;;;5.73;100.00;102656.22;5054922;28;19924;-49
2021/11/18 07:13:35;;;;;;;;;;;;;;;5.74;100.00;102657.97;5053701;28;19932;-47
2021/11/18 07:16:02;;;;;;;;;;;;;;;5.75;100.00;102664.88;5054919;28;19977;-48
2021/11/18 07:18:30;;;;;;;;;;;;;;;5.75;100.00;102671.00;5054837;28;19940;-46
2021/11/18 07:20:57;;;;;;;;;;;;;;;5.75;100.00;102671.00;5053478;28;19924;-48
2021/11/18 07:23:23;;;;;;;;;;;;;;;5.80;100.00;102670.91;5054263;28;19929;-49
2021/11/18 07:25:52;;;;;;;;;;;;;;;5.80;100.00;102673.50;5051987;28;20381;-46
2021/11/18 07:28:19;;;;;;;;;;;;;;;5.80;100.00;102677.88;5052993;28;19924;-49
2021/11/18 07:30:47;;;;;;;;;;;;;;;5.85;100.00;102676.91;5054516;28;20322;-48
2021/11/18 07:33:14;;;;;;;;;;;;;;;5.86;100.00;102677.78;5054071;28;19924;-47
2021/11/18 07:35:41;;;;;;;;;;;;;;;5.86;100.00;102680.38;5054144;28;19932;-45
2021/11/18 07:38:08;;;;;;;;;;;;;;;5.86;100.00;102689.09;5051887;28;20051;-44
2021/11/18 07:40:34;;;;;;;;;;;;;;;5.87;100.00;102696.03;5052364;28;20299;-45
2021/11/18 07:43:04;;;;;;;;;;;;;;;5.87;100.00;102690.78;5053062;28;20299;-46
2021/11/18 07:45:31;;;;;;;;;;;;;;;5.87;100.00;102688.19;5051683;28;20375;-44
2021/11/18 07:47:58;;;;;;;;;;;;;;;5.89;100.00;102701.22;5051561;28;19971;-45
2021/11/18 07:50:24;;;;;;;;;;;;;;;5.87;100.00;102701.25;5054172;28;19929;-45
2021/11/18 07:52:51;;;;;;;;;;;;;;;5.87;100.00;102703.84;5054168;28;19924;-46
2021/11/18 07:55:19;;;;;;;;;;;;;;;5.89;100.00;102703.81;5053017;28;19964;-48
2021/11/18 07:57:45;;;;;;;;;;;;;;;5.91;100.00;102710.75;5051225;28;19974;-46
2021/11/18 08:00:14;;;;;;;;;;;;;;;5.91;100.00;102707.28;5052701;28;19982;-45
2021/11/18 08:02:42;;;;;;;;;;;;;;;5.91;100.00;102696.84;5036268;28;19935;-45
2021/11/18 08:05:09;;;;;;;;;;;;;;;5.92;100.00;102699.44;5052159;28;20035;-44
2021/11/18 08:07:36;;;;;;;;;;;;;;;5.95;100.00;102697.66;5051153;28;19932;-44
2021/11/18 08:10:04;;;;;;;;;;;;;;;5.95;100.00;102702.91;5050686;28;19949;-45
2021/11/18 08:12:33;;;;;;;;;;;;;;;5.95;100.00;102701.13;5052290;28;19967;-44
2021/11/18 08:15:00;;;;;;;;;;;;;;;5.96;100.00;102704.59;5053851;28;19925;-44
2021/11/18 08:17:27;;;;;;;;;;;;;;;6.03;100.00;102695.81;5052284;28;19925;-44
2021/11/18 08:19:54;;;;;;;;;;;;;;;6.09;100.00;102687.88;5053778;28;19925;-45
2021/11/18 08:22:20;;;;;;;;;;;;;;;6.15;100.00;102679.94;5053294;28;19925;-47
2021/11/18 08:24:47;;;;;;;;;;;;;;;6.19;100.00;102676.38;5053638;28;19924;-50
2021/11/18 08:27:14;;;;;;;;;;;;;;;6.28;100.00;102687.56;5053645;28;19924;-53
2021/11/18 08:29:40;;;;;;;;;;;;;;;6.34;100.00;102677.88;5052964;28;20403;-51
2021/11/18 08:32:07;;;;;;;;;;;;;;;6.40;100.00;102679.50;5047827;28;20287;-51
2021/11/18 08:34:34;;;;;;;;;;;;;;;6.37;100.00;102692.63;5050234;28;20035;-48
2021/11/18 08:37:01;;;;;;;;;;;;;;;6.38;100.00;102695.22;5051883;28;20346;-47
2021/11/18 08:39:27;;;;;;;;;;;;;;;6.42;100.00;102688.16;5051977;28;20663;-47
2021/11/18 08:41:55;;;;;;;;;;;;;;;6.46;100.00;102684.59;5050968;28;20287;-49
2021/11/18 08:44:23;;;;;;;;;;;;;;;6.56;100.00;102685.31;5051414;28;20335;-51
2021/11/18 08:46:50;;;;;;;;;;;;;;;6.66;100.00;102686.84;5048245;28;19932;-49
2021/11/18 08:49:17;;;;;;;;;;;;;;;6.74;100.00;102689.31;5050439;28;19956;-48
2021/11/18 08:51:44;;;;;;;;;;;;;;;6.80;100.00;102693.56;5051998;28;19925;-48
2021/11/18 08:54:12;;;;;;;;;;;;;;;6.88;100.00;102689.91;5051955;28;19929;-46
2021/11/18 08:56:39;;;;;;;;;;;;;;;6.97;100.00;102685.38;5052935;28;19940;-47
2021/11/18 08:59:06;;;;;;;;;;;;;;;7.06;100.00;102686.06;5051302;28;19974;-48
2021/11/18 09:01:38;;;;;;;;;;;;;;;7.14;100.00;102688.50;5053159;28;19932;-46
2021/11/18 09:04:06;;;;;;;;;;;;;;;7.24;100.00;102686.53;5052867;28;19924;-49
2021/11/18 09:06:33;;;;;;;;;;;;;;;7.34;100.00;102695.06;5053156;28;19929;-47
2021/11/18 09:09:00;;;;;;;;;;;;;;;7.45;100.00;102698.31;5052947;28;19925;-53
2021/11/18 09:11:27;;;;;;;;;;;;;;;7.55;100.00;102705.06;5051546;28;19971;-47
2021/11/18 09:13:55;;;;;;;;;;;;;;;7.57;100.00;102712.88;5050353;28;19924;-50
2021/11/18 09:16:22;;;;;;;;;;;;;;;7.65;100.00;102708.34;5051071;28;19932;-51
2021/11/18 09:18:49;;;;;;;;;;;;;;;7.82;100.00;102707.06;5035018;28;19924;-49
2021/11/18 09:21:17;;;;;;;;;;;;;;;8.06;100.00;102716.09;5052873;28;20268;-50
2021/11/18 09:23:46;;;;;;;;;;;;;;;8.25;100.00;102717.34;5034931;28;19932;-47
2021/11/18 09:26:13;;;;;;;;;;;;;;;8.28;100.00;102725.13;5052556;28;20050;-52
2021/11/18 09:28:40;;;;;;;;;;;;;;;8.51;100.00;102739.44;5052319;28;19932;-48
2021/11/18 09:31:08;;;;;;;;;;;;;;;8.70;100.00;102747.69;5047939;28;19931;-51
2021/11/18 09:33:35;;;;;;;;;;;;;;;8.93;100.00;102739.19;5050807;28;20015;-47
2021/11/18 09:36:03;;;;;;;;;;;;;;;9.02;100.00;102734.59;5050863;28;19925;-50
2021/11/18 09:38:30;;;;;;;;;;;;;;;9.11;100.00;102737.81;5050186;28;19935;-48
2021/11/18 09:41:12;;;;;;;;;;;;;;;9.22;100.00;102737.50;5052174;28;19979;-51
2021/11/18 09:43:58;;;;;;;;;;;;;;;9.21;100.00;102745.41;5051188;28;19925;-47
2021/11/18 09:46:43;;;;;;;;;;;;;;;9.40;100.00;102736.06;5052428;28;20023;-47
2021/11/18 09:49:28;;;;;;;;;;;;;;;9.45;99.68;102725.44;5052259;28;19932;-48
2021/11/18 09:52:18;;;;;;;;;;;;;;;9.62;98.22;102735.44;5052127;28;19932;-49
2021/11/18 09:54:50;;;;;;;;;;;;;;;9.92;97.42;102743.25;5050260;28;19924;-47
2021/11/18 09:57:23;;;;;;;;;;;;;;;10.19;96.42;102751.16;5049703;28;19931;-47
2021/11/18 10:00:10;;;;;;;;;;;;;;;10.05;95.56;102741.06;5050677;28;19929;-48
2021/11/18 10:02:43;;;;;;;;;;;;;;;10.55;94.09;102751.72;5048142;28;20284;-48
2021/11/18 10:05:16;;;;;;;;;;;;;;;10.72;93.67;102737.94;5051482;28;19931;-52
2021/11/18 10:07:44;;;;;;;;;;;;;;;10.69;92.29;102738.06;5052150;28;19936;-48
2021/11/18 10:10:16;;;;;;;;;;;;;;;10.95;91.99;102731.00;5035219;28;19924;-46
2021/11/18 10:13:21;;;;;;;;;;;;;;;10.98;90.29;102726.47;5055818;28;20358;-48
2021/11/18 10:15:51;;;;;;;;;;;;;;;11.07;90.30;102721.78;5033744;28;19925;-50
2021/11/18 10:18:22;;;;;;;;;;;;;;;11.15;88.53;102707.44;5016598;28;19925;-48
2021/11/18 10:21:15;;;;;;;;;;;;;;;11.26;89.06;102714.91;5042806;28;19929;-48
2021/11/18 10:23:43;;;;;;;;;;;;;;;11.35;88.09;102718.97;5049601;28;19954;-48
2021/11/18 10:26:11;;;;;;;;;;;;;;;11.20;87.07;102707.25;5056331;28;20403;-50
2021/11/18 10:28:41;;;;;;;;;;;;;;;10.98;88.98;102710.69;5055953;28;20400;-49
2021/11/18 10:31:14;;;;;;;;;;;;;;;11.08;87.83;102712.97;5051512;28;19929;-46
2021/11/18 10:33:41;;;;;;;;;;;;;;;11.05;87.91;102721.84;5052756;28;19952;-48
2021/11/18 10:36:11;;;;;;;;;;;;;;;10.89;87.56;102725.97;5055672;28;19924;-46
2021/11/18 10:38:58;;;;;;;;;;;;;;;10.74;88.77;102730.84;5055705;28;19956;-49
2021/11/18 10:41:27;;;;;;;;;;;;;;;11.03;88.27;102723.69;5053870;28;19932;-48
2021/11/18 10:44:12;;;;;;;;;;;;;;;11.07;88.23;102713.88;5054172;28;19925;-45
2021/11/18 10:46:40;;;;;;;;;;;;;;;11.04;88.54;102714.84;5055447;28;19925;-45
2021/11/18 10:49:09;;;;;;;;;;;;;;;11.04;88.50;102708.72;5055352;28;19931;-49
2021/11/18 10:51:54;;;;;;;;;;;;;;;10.82;87.98;102702.50;5052506;28;19924;-47
2021/11/18 10:54:58;;;;;;;;;;;;;;;10.90;87.74;102702.19;5052194;28;20368;-47
2021/11/18 10:57:28;;;;;;;;;;;;;;;10.86;87.34;102695.34;5033104;28;20372;-48
2021/11/18 11:00:09;;;;;;;;;;;;;;;10.73;87.20;102700.22;5051157;28;19932;-47
2021/11/18 11:02:36;;;;;;;;;;;;;;;10.69;87.43;102702.97;5055006;28;20392;-51
2021/11/18 11:05:21;;;;;;;;;;;;;;;10.55;87.81;102691.22;5053875;28;19983;-51
2021/11/18 11:07:48;;;;;;;;;;;;;;;10.45;87.94;102705.59;5055065;28;19931;-49
2021/11/18 11:10:16;;;;;;;;;;;;;;;10.48;88.09;102701.09;5055106;28;19948;-52
2021/11/18 11:12:48;;;;;;;;;;;;;;;10.53;87.74;102703.53;5053805;28;20015;-51
2021/11/18 11:15:21;;;;;;;;;;;;;;;10.51;88.33;102700.09;5053435;28;20411;-51
2021/11/18 11:17:51;;;;;;;;;;;;;;;10.46;88.17;102695.00;5053417;28;19929;-49
2021/11/18 11:20:20;;;;;;;;;;;;;;;10.48;87.81;102692.31;5053065;28;19928;-51
2021/11/18 11:22:53;;;;;;;;;;;;;;;10.47;88.28;102680.94;5054113;28;20308;-47
2021/11/18 11:25:39;;;;;;;;;;;;;;;10.59;88.16;102670.88;5050653;28;19925;-46
2021/11/18 11:28:20;;;;;;;;;;;;;;;10.51;88.43;102660.63;5051964;28;19924;-47
2021/11/18 11:30:53;;;;;;;;;;;;;;;10.57;88.27;102668.31;5053355;28;19928;-48
2021/11/18 11:33:26;;;;;;;;;;;;;;;10.46;87.82;102649.44;5054395;28;19925;-47
2021/11/18 11:36:11;;;;;;;;;;;;;;;10.47;88.35;102659.03;5054844;28;19932;-48
2021/11/18 11:38:47;;;;;;;;;;;;;;;10.45;88.82;102647.72;5054483;28;19935;-47
2021/11/18 11:41:17;;;;;;;;;;;;;;;10.49;89.12;102650.16;5054275;28;20302;-50
2021/11/18 11:43:46;;;;;;;;;;;;;;;10.47;88.07;102649.38;5053254;28;19925;-48
2021/11/18 11:46:26;;;;;;;;;;;;;;;10.46;88.12;102649.44;5053286;28;19948;-50
2021/11/18 11:49:22;;;;;;;;;;;;;;;10.48;87.87;102650.22;5036947;28;19925;-52
2021/11/18 11:52:12;;;;;;;;;;;;;;;10.42;88.86;102650.47;5047719;28;19936;-46
2021/11/18 11:54:56;;;;;;;;;;;;;;;10.38;88.51;102639.19;5048185;28;20400;-44
2021/11/18 11:57:41;;;;;;;;;;;;;;;10.51;88.38;102636.09;5054185;28;20337;-50
2021/11/18 12:00:11;;;;;;;;;;;;;;;10.53;87.30;102637.78;5050542;28;19929;-51
2021/11/18 12:02:49;;;;;;;;;;;;;;;10.31;87.38;102635.88;5049820;28;19924;-52
2021/11/18 12:05:22;;;;;;;;;;;;;;;10.36;87.90;102627.88;5054173;28;19924;-51
2021/11/18 12:07:55;;;;;;;;;;;;;;;10.35;89.12;102631.41;5052038;28;19943;-46
2021/11/18 12:10:34;;;;;;;;;;;;;;;10.38;89.05;102622.56;5048926;28;19948;-46
2021/11/18 12:13:09;;;;;;;;;;;;;;;10.35;89.22;102626.16;5052794;28;20291;-46
2021/11/18 12:15:42;;;;;;;;;;;;;;;10.39;88.85;102622.50;5050421;28;19925;-46
2021/11/18 12:18:11;;;;;;;;;;;;;;;10.48;88.95;102623.91;5049675;28;19924;-47
2021/11/18 12:20:38;;;;;;;;;;;;;;;10.49;87.57;102634.38;5053723;28;19925;-51
2021/11/18 12:23:06;;;;;;;;;;;;;;;10.51;88.07;102621.16;5052311;28;20027;-50
2021/11/18 12:25:33;;;;;;;;;;;;;;;10.46;87.21;102623.13;5053122;28;20029;-49
2021/11/18 12:28:11;;;;;;;;;;;;;;;10.50;86.41;102627.38;5052324;28;19925;-48
2021/11/18 12:30:43;;;;;;;;;;;;;;;10.45;86.97;102637.19;5049978;28;19928;-46
2021/11/18 12:33:18;;;;;;;;;;;;;;;10.49;86.72;102628.28;5049579;28;19932;-50
2021/11/18 12:36:03;;;;;;;;;;;;;;;10.56;84.95;102640.28;5053279;28;19964;-50
2021/11/18 12:38:42;;;;;;;;;;;;;;;10.56;85.22;102657.84;5053172;28;19932;-46
2021/11/18 12:41:09;;;;;;;;;;;;;;;10.57;85.39;102670.09;5053359;28;19925;-49
2021/11/18 12:43:54;;;;;;;;;;;;;;;10.56;85.60;102660.47;5051756;28;20279;-50
2021/11/18 12:46:33;;;;;;;;;;;;;;;10.69;85.46;102647.72;5049357;28;20039;-48
2021/11/18 12:49:03;;;;;;;;;;;;;;;10.77;85.01;102629.88;5051972;28;19925;-46